createdAt,value
2024-03-03T00:00:13.591Z,1001.65
2024-03-03T00:01:13.789Z,1001.65
2024-03-03T00:02:13.986Z,1001.65
2024-03-03T00:03:14.104Z,1001.66
2024-03-03T00:04:14.293Z,1001.63
2024-03-03T00:05:14.420Z,1001.60
2024-03-03T00:06:14.544Z,1001.63
2024-03-03T00:07:14.749Z,1001.64
2024-03-03T00:08:14.828Z,1001.65
2024-03-03T00:09:14.956Z,1001.63
2024-03-03T00:10:15.207Z,1001.62
2024-03-03T00:11:15.345Z,1001.65
2024-03-03T00:12:15.462Z,1001.60
2024-03-03T00:13:15.717Z,1001.62
2024-03-03T00:14:15.716Z,1001.60
2024-03-03T00:15:15.870Z,1001.60
2024-03-03T00:16:16.069Z,1001.60
2024-03-03T00:17:16.158Z,1001.59
2024-03-03T00:18:16.362Z,1001.57
2024-03-03T00:19:16.516Z,1001.63
2024-03-03T00:20:16.667Z,1001.57
2024-03-03T00:21:16.814Z,1001.56
2024-03-03T00:22:17.006Z,1001.59
2024-03-03T00:23:17.175Z,1001.54
2024-03-03T00:24:17.318Z,1001.53
2024-03-03T00:25:17.516Z,1001.53
2024-03-03T00:26:17.613Z,1001.54
2024-03-03T00:27:17.806Z,1001.59
2024-03-03T00:28:18.047Z,1001.56
2024-03-03T00:29:18.081Z,1001.56
2024-03-03T00:30:18.235Z,1001.58
2024-03-03T00:31:18.370Z,1001.60
2024-03-03T00:32:18.515Z,1001.52
2024-03-03T00:33:18.727Z,1001.56
2024-03-03T00:34:18.944Z,1001.53
2024-03-03T00:35:19.007Z,1001.52
2024-03-03T00:36:19.165Z,1001.48
2024-03-03T00:37:19.373Z,1001.52
2024-03-03T00:38:19.419Z,1001.50
2024-03-03T00:39:19.558Z,1001.48
2024-03-03T00:40:19.946Z,1001.46
2024-03-03T00:41:19.873Z,1001.50
2024-03-03T00:42:20.021Z,1001.46
2024-03-03T00:43:20.223Z,1001.48
2024-03-03T00:44:20.259Z,1001.46
2024-03-03T00:45:20.413Z,1001.42
2024-03-03T00:46:20.587Z,1001.47
2024-03-03T00:47:20.757Z,1001.42
2024-03-03T00:48:20.916Z,1001.47
2024-03-03T00:49:21.143Z,1001.43
2024-03-03T00:50:21.135Z,1001.38
2024-03-03T00:51:21.287Z,1001.37
2024-03-03T00:52:21.484Z,1001.37
2024-03-03T00:53:21.613Z,1001.36
2024-03-03T00:54:21.804Z,1001.37
2024-03-03T00:55:22.010Z,1001.34
2024-03-03T00:56:22.051Z,1001.38
2024-03-03T00:57:22.207Z,1001.40
2024-03-03T00:58:22.459Z,1001.42
2024-03-03T00:59:22.508Z,1001.42
2024-03-03T01:00:22.662Z,1001.40
2024-03-03T01:01:22.840Z,1001.36
2024-03-03T01:02:23.027Z,1001.39
2024-03-03T01:03:23.040Z,1001.39
2024-03-03T01:04:23.210Z,1001.36
2024-03-03T01:05:23.326Z,1001.33
2024-03-03T01:06:23.516Z,1001.37
2024-03-03T01:07:23.663Z,1001.33
2024-03-03T01:08:23.809Z,1001.40
2024-03-03T01:09:24.004Z,1001.42
2024-03-03T01:10:24.171Z,1001.36
2024-03-03T01:11:24.336Z,1001.38
2024-03-03T01:12:24.467Z,1001.37
2024-03-03T01:13:24.691Z,1001.33
2024-03-03T01:14:24.799Z,1001.37
2024-03-03T01:15:24.972Z,1001.37
2024-03-03T01:16:25.059Z,1001.37
2024-03-03T01:17:25.228Z,1001.34
2024-03-03T01:18:25.384Z,1001.38
2024-03-03T01:19:25.653Z,1001.34
2024-03-03T01:20:25.674Z,1001.36
2024-03-03T01:21:25.819Z,1001.37
2024-03-03T01:22:26.048Z,1001.39
2024-03-03T01:23:26.176Z,1001.41
2024-03-03T01:24:26.318Z,1001.40
2024-03-03T01:25:26.506Z,1001.43
2024-03-03T01:26:26.623Z,1001.43
2024-03-03T01:27:26.800Z,1001.44
2024-03-03T01:28:26.972Z,1001.43
2024-03-03T01:29:27.090Z,1001.42
2024-03-03T01:30:27.260Z,1001.42
2024-03-03T01:31:27.402Z,1001.41
2024-03-03T01:32:27.563Z,1001.43
2024-03-03T01:33:27.693Z,1001.42
2024-03-03T01:34:27.907Z,1001.47
2024-03-03T01:35:28.033Z,1001.50
2024-03-03T01:36:28.197Z,1001.48
2024-03-03T01:37:28.337Z,1001.50
2024-03-03T01:38:28.490Z,1001.50
2024-03-03T01:39:28.640Z,1001.52
2024-03-03T01:40:28.836Z,1001.53
2024-03-03T01:41:28.969Z,1001.50
2024-03-03T01:42:29.130Z,1001.50
2024-03-03T01:43:29.268Z,1001.50
2024-03-03T01:44:29.402Z,1001.50
2024-03-03T01:45:29.562Z,1001.57
2024-03-03T01:46:29.706Z,1001.55
2024-03-03T01:47:29.910Z,1001.54
2024-03-03T01:48:30.055Z,1001.52
2024-03-03T01:49:30.202Z,1001.54
2024-03-03T01:50:30.342Z,1001.49
2024-03-03T01:51:30.502Z,1001.45
2024-03-03T01:52:30.703Z,1001.49
2024-03-03T01:53:30.846Z,1001.45
2024-03-03T01:54:31.030Z,1001.46
2024-03-03T01:55:31.148Z,1001.44
2024-03-03T01:56:31.306Z,1001.46
2024-03-03T01:57:31.463Z,1001.49
2024-03-03T01:58:31.607Z,1001.43
2024-03-03T01:59:31.763Z,1001.43
2024-03-03T02:00:31.918Z,1001.48
2024-03-03T02:01:32.153Z,1001.47
2024-03-03T02:02:32.185Z,1001.44
2024-03-03T02:03:32.354Z,1001.43
2024-03-03T02:04:32.504Z,1001.47
2024-03-03T02:05:32.690Z,1001.44
2024-03-03T02:06:32.832Z,1001.44
2024-03-03T02:07:33.010Z,1001.45
2024-03-03T02:08:33.172Z,1001.43
2024-03-03T02:09:33.323Z,1001.39
2024-03-03T02:10:33.447Z,1001.42
2024-03-03T02:11:33.646Z,1001.43
2024-03-03T02:12:33.789Z,1001.40
2024-03-03T02:13:33.972Z,1001.42
2024-03-03T02:14:34.132Z,1001.39
2024-03-03T02:15:34.315Z,1001.39
2024-03-03T02:16:34.365Z,1001.36
2024-03-03T02:17:34.560Z,1001.39
2024-03-03T02:18:34.653Z,1001.40
2024-03-03T02:19:34.893Z,1001.38
2024-03-03T02:20:34.904Z,1001.33
2024-03-03T02:21:35.064Z,1001.34
2024-03-03T02:22:35.229Z,1001.34
2024-03-03T02:23:35.350Z,1001.32
2024-03-03T02:24:35.502Z,1001.34
2024-03-03T02:25:35.655Z,1001.35
2024-03-03T02:26:35.816Z,1001.33
2024-03-03T02:27:35.954Z,1001.29
2024-03-03T02:28:36.119Z,1001.30
2024-03-03T02:29:36.295Z,1001.31
2024-03-03T02:30:36.618Z,1001.31
2024-03-03T02:31:36.648Z,1001.28
2024-03-03T02:32:36.845Z,1001.29
2024-03-03T02:33:37.001Z,1001.28
2024-03-03T02:34:37.145Z,1001.25
2024-03-03T02:35:37.355Z,1001.23
2024-03-03T02:36:37.621Z,1001.22
2024-03-03T02:37:37.650Z,1001.25
2024-03-03T02:38:37.822Z,1001.19
2024-03-03T02:39:38.055Z,1001.18
2024-03-03T02:40:38.193Z,1001.19
2024-03-03T02:41:38.345Z,1001.21
2024-03-03T02:42:38.543Z,1001.23
2024-03-03T02:43:38.688Z,1001.22
2024-03-03T02:44:38.844Z,1001.23
2024-03-03T02:45:39.142Z,1001.19
2024-03-03T02:46:39.197Z,1001.17
2024-03-03T02:47:39.388Z,1001.22
2024-03-03T02:48:39.553Z,1001.18
2024-03-03T02:49:39.709Z,1001.18
2024-03-03T02:50:39.862Z,1001.18
2024-03-03T02:51:40.056Z,1001.20
2024-03-03T02:52:40.205Z,1001.18
2024-03-03T02:53:40.392Z,1001.18
2024-03-03T02:54:40.625Z,1001.16
2024-03-03T02:55:40.734Z,1001.13
2024-03-03T02:56:40.893Z,1001.14
2024-03-03T02:57:43.417Z,1001.11
2024-03-03T02:58:41.171Z,1001.14
2024-03-03T02:59:41.330Z,1001.12
2024-03-03T03:00:41.549Z,1001.10
2024-03-03T03:01:41.733Z,1001.10
2024-03-03T03:02:41.798Z,1001.10
2024-03-03T03:03:41.971Z,1001.15
2024-03-03T03:04:42.096Z,1001.16
2024-03-03T03:05:42.272Z,1001.15
2024-03-03T03:06:42.471Z,1001.14
2024-03-03T03:07:42.626Z,1001.13
2024-03-03T03:08:42.793Z,1001.13
2024-03-03T03:09:43.015Z,1001.14
2024-03-03T03:10:43.046Z,1001.12
2024-03-03T03:11:43.208Z,1001.14
2024-03-03T03:12:43.434Z,1001.14
2024-03-03T03:13:43.573Z,1001.09
2024-03-03T03:14:43.710Z,1001.17
2024-03-03T03:15:43.883Z,1001.12
2024-03-03T03:16:44.057Z,1001.12
2024-03-03T03:17:44.255Z,1001.14
2024-03-03T03:18:44.444Z,1001.12
2024-03-03T03:19:44.587Z,1001.13
2024-03-03T03:20:44.776Z,1001.12
2024-03-03T03:21:44.946Z,1001.08
2024-03-03T03:22:45.122Z,1001.06
2024-03-03T03:23:45.277Z,1001.07
2024-03-03T03:24:45.499Z,1001.04
2024-03-03T03:25:45.563Z,1001.08
2024-03-03T03:26:45.765Z,1001.04
2024-03-03T03:27:45.958Z,1001.05
2024-03-03T03:28:46.109Z,1001.05
2024-03-03T03:29:46.277Z,1001.03
2024-03-03T03:30:46.492Z,1001.03
2024-03-03T03:31:46.618Z,1000.99
2024-03-03T03:32:46.822Z,1000.99
2024-03-03T03:33:46.988Z,1001.04
2024-03-03T03:34:47.140Z,1001.02
2024-03-03T03:35:47.321Z,1001.00
2024-03-03T03:36:47.598Z,1001.02
2024-03-03T03:37:47.685Z,1000.99
2024-03-03T03:38:47.759Z,1001.03
2024-03-03T03:39:47.931Z,1001.05
2024-03-03T03:40:48.097Z,1001.03
2024-03-03T03:41:48.357Z,1001.04
2024-03-03T03:42:48.406Z,1001.05
2024-03-03T03:43:48.547Z,1001.04
2024-03-03T03:44:48.722Z,1001.02
2024-03-03T03:45:50.714Z,1001.04
2024-03-03T03:46:48.988Z,1001.05
2024-03-03T03:47:49.187Z,1001.05
2024-03-03T03:48:49.376Z,1001.04
2024-03-03T03:49:49.517Z,1001.07
2024-03-03T03:50:49.695Z,1001.06
2024-03-03T03:51:49.873Z,1001.03
2024-03-03T03:52:50.057Z,1001.01
2024-03-03T03:53:50.222Z,1001.04
2024-03-03T03:54:50.427Z,1001.02
2024-03-03T03:55:50.563Z,1000.98
2024-03-03T03:56:50.722Z,1000.99
2024-03-03T03:57:50.880Z,1000.98
2024-03-03T03:58:51.025Z,1000.98
2024-03-03T03:59:51.189Z,1000.99
2024-03-03T04:00:51.413Z,1000.98
2024-03-03T04:01:51.587Z,1000.92
2024-03-03T04:02:51.611Z,1000.97
2024-03-03T04:03:51.800Z,1000.97
2024-03-03T04:04:51.950Z,1000.93
2024-03-03T04:05:52.107Z,1000.93
2024-03-03T04:06:52.275Z,1000.92
2024-03-03T04:07:52.432Z,1000.91
2024-03-03T04:08:52.560Z,1000.95
2024-03-03T04:09:52.764Z,1000.96
2024-03-03T04:10:52.929Z,1000.93
2024-03-03T04:11:53.065Z,1000.94
2024-03-03T04:12:53.331Z,1000.95
2024-03-03T04:13:53.368Z,1000.94
2024-03-03T04:14:53.558Z,1000.97
2024-03-03T04:15:53.720Z,1000.95
2024-03-03T04:16:53.891Z,1000.91
2024-03-03T04:17:54.085Z,1000.91
2024-03-03T04:18:54.247Z,1000.95
2024-03-03T04:19:54.415Z,1000.96
2024-03-03T04:20:54.604Z,1000.97
2024-03-03T04:21:54.744Z,1000.94
2024-03-03T04:22:54.896Z,1000.92
2024-03-03T04:23:55.074Z,1000.96
2024-03-03T04:24:55.250Z,1000.94
2024-03-03T04:25:55.393Z,1000.93
2024-03-03T04:26:55.612Z,1000.96
2024-03-03T04:27:55.720Z,1000.91
2024-03-03T04:28:55.842Z,1000.88
2024-03-03T04:29:55.996Z,1000.90
2024-03-03T04:30:56.175Z,1000.88
2024-03-03T04:31:56.413Z,1000.86
2024-03-03T04:32:56.514Z,1000.88
2024-03-03T04:33:56.651Z,1000.87
2024-03-03T04:34:56.815Z,1000.87
2024-03-03T04:35:56.957Z,1000.88
2024-03-03T04:36:57.170Z,1000.86
2024-03-03T04:37:57.324Z,1000.86
2024-03-03T04:38:57.491Z,1000.85
2024-03-03T04:39:57.709Z,1000.88
2024-03-03T04:40:57.846Z,1000.86
2024-03-03T04:41:57.984Z,1000.87
2024-03-03T04:42:58.204Z,1000.85
2024-03-03T04:43:58.335Z,1000.83
2024-03-03T04:44:58.510Z,1000.84
2024-03-03T04:45:58.855Z,1000.85
2024-03-03T04:46:58.796Z,1000.80
2024-03-03T04:47:59.039Z,1000.80
2024-03-03T04:48:59.098Z,1000.83
2024-03-03T04:49:59.229Z,1000.83
2024-03-03T04:50:59.380Z,1000.82
2024-03-03T04:51:59.597Z,1000.81
2024-03-03T04:52:59.758Z,1000.84
2024-03-03T04:53:59.949Z,1000.82
2024-03-03T04:55:00.124Z,1000.82
2024-03-03T04:56:00.238Z,1000.81
2024-03-03T04:57:00.406Z,1000.81
2024-03-03T04:58:00.610Z,1000.84
2024-03-03T04:59:00.753Z,1000.85
2024-03-03T05:00:00.900Z,1000.88
2024-03-03T05:01:01.134Z,1000.86
2024-03-03T05:02:01.207Z,1000.89
2024-03-03T05:03:01.330Z,1000.86
2024-03-03T05:04:01.483Z,1000.87
2024-03-03T05:05:01.648Z,1000.90
2024-03-03T05:06:01.779Z,1000.89
2024-03-03T05:07:02.014Z,1000.90
2024-03-03T05:08:02.133Z,1000.85
2024-03-03T05:09:02.305Z,1000.86
2024-03-03T05:10:02.546Z,1000.91
2024-03-03T05:11:02.708Z,1000.85
2024-03-03T05:12:02.859Z,1000.85
2024-03-03T05:13:03.040Z,1000.87
2024-03-03T05:14:03.128Z,1000.86
2024-03-03T05:15:03.303Z,1000.88
2024-03-03T05:16:03.519Z,1000.85
2024-03-03T05:17:03.583Z,1000.84
2024-03-03T05:18:03.760Z,1000.87
2024-03-03T05:19:03.950Z,1000.83
2024-03-03T05:20:04.195Z,1000.87
2024-03-03T05:21:04.261Z,1000.84
2024-03-03T05:22:04.439Z,1000.90
2024-03-03T05:23:04.587Z,1000.85
2024-03-03T05:24:04.734Z,1000.89
2024-03-03T05:25:04.925Z,1000.90
2024-03-03T05:26:05.067Z,1000.92
2024-03-03T05:27:05.247Z,1000.92
2024-03-03T05:28:05.430Z,1000.92
2024-03-03T05:29:05.598Z,1000.94
2024-03-03T05:30:05.765Z,1000.94
2024-03-03T05:31:05.981Z,1000.98
2024-03-03T05:32:06.143Z,1000.93
2024-03-03T05:33:06.327Z,1000.95
2024-03-03T05:34:06.735Z,1000.96
2024-03-03T05:35:06.641Z,1000.98
2024-03-03T05:36:06.785Z,1000.99
2024-03-03T05:37:07.013Z,1000.99
2024-03-03T05:38:07.013Z,1001.00
2024-03-03T05:39:07.173Z,1001.02
2024-03-03T05:40:07.412Z,1001.02
2024-03-03T05:41:07.431Z,1001.05
2024-03-03T05:42:07.592Z,1001.02
2024-03-03T05:43:07.833Z,1001.03
2024-03-03T05:44:07.842Z,1001.02
2024-03-03T05:45:08.035Z,1000.99
2024-03-03T05:46:08.262Z,1001.01
2024-03-03T05:47:08.281Z,1001.02
2024-03-03T05:48:08.488Z,1001.05
2024-03-03T05:49:08.812Z,1001.04
2024-03-03T05:50:08.828Z,1001.05
2024-03-03T05:51:08.954Z,1001.04
2024-03-03T05:52:09.260Z,1001.02
2024-03-03T05:53:09.307Z,1001.03
2024-03-03T05:54:09.470Z,1001.02
2024-03-03T05:55:09.829Z,1001.05
2024-03-03T05:56:09.721Z,1001.02
2024-03-03T05:57:09.893Z,1001.03
2024-03-03T05:58:10.149Z,1001.04
2024-03-03T05:59:10.193Z,1001.05
2024-03-03T06:00:10.336Z,1001.08
2024-03-03T06:01:10.511Z,1001.09
2024-03-03T06:02:10.579Z,1001.10
2024-03-03T06:03:10.710Z,1001.08
2024-03-03T06:04:10.875Z,1001.11
2024-03-03T06:05:11.069Z,1001.10
2024-03-03T06:06:11.252Z,1001.09
2024-03-03T06:07:11.351Z,1001.10
2024-03-03T06:08:11.334Z,1001.10
2024-03-03T06:09:11.499Z,1001.15
2024-03-03T06:10:11.675Z,1001.12
2024-03-03T06:11:11.844Z,1001.14
2024-03-03T06:12:12.019Z,1001.13
2024-03-03T06:13:12.221Z,1001.11
2024-03-03T06:14:12.330Z,1001.13
2024-03-03T06:15:12.520Z,1001.19
2024-03-03T06:16:12.698Z,1001.16
2024-03-03T06:17:12.852Z,1001.18
2024-03-03T06:18:13.074Z,1001.20
2024-03-03T06:19:13.250Z,1001.18
2024-03-03T06:20:13.400Z,1001.19
2024-03-03T06:21:13.554Z,1001.20
2024-03-03T06:22:13.793Z,1001.13
2024-03-03T06:23:13.919Z,1001.13
2024-03-03T06:24:14.140Z,1001.13
2024-03-03T06:25:14.228Z,1001.14
2024-03-03T06:26:14.347Z,1001.17
2024-03-03T06:27:14.533Z,1001.14
2024-03-03T06:28:14.709Z,1001.16
2024-03-03T06:29:14.822Z,1001.18
2024-03-03T06:30:14.979Z,1001.17
2024-03-03T06:31:15.139Z,1001.17
2024-03-03T06:32:15.333Z,1001.14
2024-03-03T06:33:15.359Z,1001.10
2024-03-03T06:34:15.571Z,1001.14
2024-03-03T06:35:15.690Z,1001.13
2024-03-03T06:36:15.837Z,1001.13
2024-03-03T06:37:16.041Z,1001.11
2024-03-03T06:38:16.176Z,1001.12
2024-03-03T06:39:16.329Z,1001.17
2024-03-03T06:40:16.527Z,1001.15
2024-03-03T06:41:16.660Z,1001.18
2024-03-03T06:42:16.836Z,1001.20
2024-03-03T06:43:17.005Z,1001.19
2024-03-03T06:44:17.162Z,1001.21
2024-03-03T06:45:17.307Z,1001.21
2024-03-03T06:46:17.532Z,1001.22
2024-03-03T06:47:17.611Z,1001.22
2024-03-03T06:48:17.745Z,1001.19
2024-03-03T06:49:18.001Z,1001.18
2024-03-03T06:50:18.003Z,1001.13
2024-03-03T06:51:18.168Z,1001.13
2024-03-03T06:52:18.428Z,1001.14
2024-03-03T06:53:18.442Z,1001.17
2024-03-03T06:54:18.599Z,1001.14
2024-03-03T06:55:18.874Z,1001.15
2024-03-03T06:56:18.892Z,1001.16
2024-03-03T06:57:19.054Z,1001.20
2024-03-03T06:58:19.357Z,1001.19
2024-03-03T06:59:19.398Z,1001.19
2024-03-03T07:00:19.539Z,1001.23
2024-03-03T07:01:19.794Z,1001.20
2024-03-03T07:02:19.808Z,1001.18
2024-03-03T07:03:19.965Z,1001.23
2024-03-03T07:04:20.239Z,1001.12
2024-03-03T07:05:20.271Z,1001.12
2024-03-03T07:06:20.405Z,1001.16
2024-03-03T07:07:20.623Z,1001.18
2024-03-03T07:08:20.627Z,1001.12
2024-03-03T07:09:20.775Z,1001.15
2024-03-03T07:10:21.095Z,1001.14
2024-03-03T07:11:21.093Z,1001.14
2024-03-03T07:12:21.575Z,1001.18
2024-03-03T07:13:21.463Z,1001.17
2024-03-03T07:14:21.408Z,1001.16
2024-03-03T07:15:21.523Z,1001.17
2024-03-03T07:16:21.742Z,1001.16
2024-03-03T07:17:21.884Z,1001.18
2024-03-03T07:18:22.006Z,1001.14
2024-03-03T07:19:22.273Z,1001.17
2024-03-03T07:20:22.285Z,1001.17
2024-03-03T07:21:22.439Z,1001.21
2024-03-03T07:22:22.693Z,1001.21
2024-03-03T07:23:22.700Z,1001.23
2024-03-03T07:24:22.848Z,1001.22
2024-03-03T07:25:22.994Z,1001.19
2024-03-03T07:26:23.139Z,1001.16
2024-03-03T07:27:23.273Z,1001.12
2024-03-03T07:28:23.465Z,1001.14
2024-03-03T07:29:23.557Z,1001.12
2024-03-03T07:30:23.785Z,1001.13
2024-03-03T07:31:23.893Z,1001.11
2024-03-03T07:32:24.051Z,1001.10
2024-03-03T07:33:24.186Z,1001.09
2024-03-03T07:34:25.338Z,1001.11
2024-03-03T07:35:24.415Z,1001.13
2024-03-03T07:36:24.551Z,1001.13
2024-03-03T07:37:24.772Z,1001.09
2024-03-03T07:38:24.819Z,1001.09
2024-03-03T07:39:24.925Z,1001.11
2024-03-03T07:40:25.155Z,1001.10
2024-03-03T07:41:25.157Z,1001.13
2024-03-03T07:42:25.378Z,1001.09
2024-03-03T07:43:25.397Z,1001.07
2024-03-03T07:44:26.589Z,1001.07
2024-03-03T07:45:25.610Z,1001.00
2024-03-03T07:46:25.772Z,1001.07
2024-03-03T07:47:25.907Z,1001.06
2024-03-03T07:48:26.002Z,1001.08
2024-03-03T07:49:27.021Z,1001.06
2024-03-03T07:50:26.219Z,1001.08
2024-03-03T07:51:26.376Z,1001.12
2024-03-03T07:52:26.553Z,1001.10
2024-03-03T07:53:26.530Z,1001.15
2024-03-03T07:54:26.652Z,1001.13
2024-03-03T07:55:30.064Z,1001.10
2024-03-03T07:56:26.856Z,1001.08
2024-03-03T07:57:27.006Z,1001.06
2024-03-03T07:58:27.182Z,1001.06
2024-03-03T07:59:27.244Z,1001.07
2024-03-03T08:00:27.416Z,1001.09
2024-03-03T08:01:27.595Z,1001.11
2024-03-03T08:02:27.597Z,1001.09
2024-03-03T08:03:27.666Z,1001.04
2024-03-03T08:04:27.872Z,1001.08
2024-03-03T08:05:27.828Z,1001.13
2024-03-03T08:06:28.372Z,1001.07
2024-03-03T08:07:28.068Z,1001.05
2024-03-03T08:08:28.158Z,1001.02
2024-03-03T08:09:28.274Z,1000.95
2024-03-03T08:10:28.432Z,1000.96
2024-03-03T08:11:28.572Z,1000.97
2024-03-03T08:12:28.717Z,1001.03
2024-03-03T08:13:28.741Z,1001.00
2024-03-03T08:14:28.824Z,1000.99
2024-03-03T08:15:28.916Z,1001.03
2024-03-03T08:16:29.065Z,1001.06
2024-03-03T08:17:29.186Z,1001.04
2024-03-03T08:18:29.363Z,1000.98
2024-03-03T08:19:29.406Z,1001.03
2024-03-03T08:20:29.713Z,1000.99
2024-03-03T08:21:29.622Z,1000.98
2024-03-03T08:22:29.728Z,1001.01
2024-03-03T08:23:29.693Z,1000.95
2024-03-03T08:24:29.805Z,1001.00
2024-03-03T08:25:29.955Z,1000.95
2024-03-03T08:26:30.100Z,1000.95
2024-03-03T08:27:30.122Z,1000.96
2024-03-03T08:28:30.299Z,1000.91
2024-03-03T08:29:30.287Z,1000.91
2024-03-03T08:30:30.423Z,1000.94
2024-03-03T08:31:30.557Z,1000.95
2024-03-03T08:32:30.665Z,1000.93
2024-03-03T08:33:30.775Z,1000.98
2024-03-03T08:34:30.995Z,1000.94
2024-03-03T08:35:31.045Z,1000.91
2024-03-03T08:36:31.032Z,1000.88
2024-03-03T08:37:33.089Z,1000.95
2024-03-03T08:38:31.223Z,1000.90
2024-03-03T08:39:31.343Z,1000.89
2024-03-03T08:40:31.488Z,1000.91
2024-03-03T08:41:31.540Z,1000.93
2024-03-03T08:42:31.661Z,1001.00
2024-03-03T08:43:31.800Z,1000.91
2024-03-03T08:44:31.890Z,1000.91
2024-03-03T08:45:32.128Z,1000.91
2024-03-03T08:46:32.063Z,1000.91
2024-03-03T08:47:32.153Z,1000.85
2024-03-03T08:48:32.445Z,1000.82
2024-03-03T08:49:32.266Z,1000.81
2024-03-03T08:50:32.302Z,1000.80
2024-03-03T08:51:32.352Z,1000.74
2024-03-03T08:52:32.441Z,1000.71
2024-03-03T08:53:32.499Z,1000.69
2024-03-03T08:54:32.545Z,1000.73
2024-03-03T08:55:32.591Z,1000.73
2024-03-03T08:56:32.547Z,1000.66
2024-03-03T08:57:32.540Z,1000.67
2024-03-03T08:58:32.566Z,1000.67
2024-03-03T08:59:32.602Z,1000.62
2024-03-03T09:00:32.586Z,1000.62
2024-03-03T09:01:32.737Z,1000.64
2024-03-03T09:02:32.674Z,1000.59
2024-03-03T09:03:32.606Z,1000.56
2024-03-03T09:04:32.790Z,1000.59
2024-03-03T09:05:32.700Z,1000.51
2024-03-03T09:06:32.788Z,1000.51
2024-03-03T09:07:32.854Z,1000.51
2024-03-03T09:08:32.793Z,1000.51
2024-03-03T09:09:32.763Z,1000.47
2024-03-03T09:10:32.790Z,1000.52
2024-03-03T09:11:32.737Z,1000.52
2024-03-03T09:12:32.723Z,1000.46
2024-03-03T09:13:32.669Z,1000.48
2024-03-03T09:14:32.600Z,1000.45
2024-03-03T09:15:32.544Z,1000.41
2024-03-03T09:16:32.661Z,1000.43
2024-03-03T09:17:32.567Z,1000.41
2024-03-03T09:18:32.686Z,1000.43
2024-03-03T09:19:32.618Z,1000.43
2024-03-03T09:20:32.659Z,1000.41
2024-03-03T09:21:32.584Z,1000.42
2024-03-03T09:22:36.563Z,1000.40
2024-03-03T09:23:40.282Z,1000.39
2024-03-03T09:24:32.668Z,1000.38
2024-03-03T09:25:34.428Z,1000.39
2024-03-03T09:26:35.345Z,1000.29
2024-03-03T09:27:32.752Z,1000.27
2024-03-03T09:28:32.789Z,1000.24
2024-03-03T09:29:32.765Z,1000.24
2024-03-03T09:30:32.674Z,1000.25
2024-03-03T09:31:32.756Z,1000.29
2024-03-03T09:32:32.744Z,1000.24
2024-03-03T09:33:32.718Z,1000.23
2024-03-03T09:34:32.687Z,1000.21
2024-03-03T09:35:32.587Z,1000.17
2024-03-03T09:36:32.636Z,1000.16
2024-03-03T09:37:32.747Z,1000.11
2024-03-03T09:38:32.623Z,1000.08
2024-03-03T09:39:32.517Z,1000.13
2024-03-03T09:40:32.572Z,1000.06
2024-03-03T09:41:32.586Z,1000.12
2024-03-03T09:42:32.612Z,1000.11
2024-03-03T09:43:32.699Z,1000.09
2024-03-03T09:44:32.608Z,1000.08
2024-03-03T09:45:32.528Z,1000.08
2024-03-03T09:46:32.566Z,1000.12
2024-03-03T09:47:32.619Z,1000.06
2024-03-03T09:48:32.663Z,1000.03
2024-03-03T09:49:32.551Z,1000.03
2024-03-03T09:50:32.568Z,1000.01
2024-03-03T09:51:32.601Z,1000.02
2024-03-03T09:52:32.654Z,1000.01
2024-03-03T09:53:32.565Z,1000.03
2024-03-03T09:54:32.636Z,1000.01
2024-03-03T09:55:32.598Z,1000.00
2024-03-03T09:56:32.498Z,1000.00
2024-03-03T09:57:32.406Z,999.99
2024-03-03T09:58:32.450Z,999.95
2024-03-03T09:59:32.461Z,999.93
2024-03-03T10:00:32.503Z,999.96
2024-03-03T10:01:32.567Z,999.93
2024-03-03T10:02:32.449Z,999.96
2024-03-03T10:03:32.452Z,999.97
2024-03-03T10:04:32.529Z,999.93
2024-03-03T10:05:32.472Z,999.90
2024-03-03T10:06:32.466Z,999.96
2024-03-03T10:07:32.530Z,999.97
2024-03-03T10:08:32.424Z,999.92
2024-03-03T10:09:32.345Z,999.95
2024-03-03T10:10:32.419Z,999.95
2024-03-03T10:11:32.273Z,999.91
2024-03-03T10:12:32.146Z,999.92
2024-03-03T10:13:32.152Z,999.91
2024-03-03T10:14:32.168Z,999.84
2024-03-03T10:15:32.087Z,999.86
2024-03-03T10:16:32.101Z,999.86
2024-03-03T10:17:32.102Z,999.88
2024-03-03T10:18:32.135Z,999.84
2024-03-03T10:19:32.132Z,999.83
2024-03-03T10:20:32.123Z,999.86
2024-03-03T10:21:32.030Z,999.80
2024-03-03T10:22:32.066Z,999.82
2024-03-03T10:23:32.057Z,999.76
2024-03-03T10:24:32.072Z,999.73
2024-03-03T10:25:32.193Z,999.77
2024-03-03T10:26:32.092Z,999.81
2024-03-03T10:27:32.088Z,999.70
2024-03-03T10:28:32.106Z,999.51
2024-03-03T10:29:34.475Z,999.48
2024-03-03T10:30:32.158Z,999.54
2024-03-03T10:31:32.218Z,999.55
2024-03-03T10:32:32.319Z,999.58
2024-03-03T10:33:32.186Z,999.52
2024-03-03T10:34:32.344Z,999.60
2024-03-03T10:35:32.264Z,999.59
2024-03-03T10:36:32.331Z,999.60
2024-03-03T10:37:32.315Z,999.64
2024-03-03T10:38:32.381Z,999.68
2024-03-03T10:39:32.331Z,999.70
2024-03-03T10:40:32.425Z,999.69
2024-03-03T10:41:32.384Z,999.71
2024-03-03T10:42:32.478Z,999.70
2024-03-03T10:43:32.491Z,999.70
2024-03-03T10:44:32.557Z,999.69
2024-03-03T10:45:32.572Z,999.69
2024-03-03T10:46:32.627Z,999.70
2024-03-03T10:47:32.612Z,999.77
2024-03-03T10:48:32.674Z,999.74
2024-03-03T10:49:32.749Z,999.76
2024-03-03T10:50:32.792Z,999.75
2024-03-03T10:51:32.871Z,999.72
2024-03-03T10:52:32.970Z,999.78
2024-03-03T10:53:33.105Z,999.74
2024-03-03T10:54:33.112Z,999.67
2024-03-03T10:55:33.230Z,999.73
2024-03-03T10:56:33.205Z,999.71
2024-03-03T10:57:33.276Z,999.67
2024-03-03T10:58:33.373Z,999.66
2024-03-03T10:59:33.443Z,999.63
2024-03-03T11:00:33.571Z,999.67
2024-03-03T11:01:33.697Z,999.55
2024-03-03T11:02:33.676Z,999.60
2024-03-03T11:03:33.733Z,999.62
2024-03-03T11:04:34.046Z,999.70
2024-03-03T11:05:33.899Z,999.63
2024-03-03T11:06:33.968Z,999.65
2024-03-03T11:07:34.075Z,999.67
2024-03-03T11:08:34.121Z,999.65
2024-03-03T11:09:34.155Z,999.63
2024-03-03T11:10:34.301Z,999.63
2024-03-03T11:11:34.826Z,999.60
2024-03-03T11:12:34.371Z,999.65
2024-03-03T11:13:34.428Z,999.63
2024-03-03T11:14:34.477Z,999.64
2024-03-03T11:15:34.502Z,999.62
2024-03-03T11:16:34.644Z,999.67
2024-03-03T11:17:34.682Z,999.62
2024-03-03T11:18:34.702Z,999.60
2024-03-03T11:19:34.732Z,999.55
2024-03-03T11:20:34.765Z,999.57
2024-03-03T11:21:34.770Z,999.56
2024-03-03T11:22:34.861Z,999.35
2024-03-03T11:23:34.846Z,999.36
2024-03-03T11:24:34.937Z,999.38
2024-03-03T11:25:34.960Z,999.38
2024-03-03T11:26:34.996Z,999.30
2024-03-03T11:27:35.080Z,999.42
2024-03-03T11:28:35.319Z,999.36
2024-03-03T11:29:35.268Z,999.27
2024-03-03T11:30:35.239Z,999.26
2024-03-03T11:31:35.234Z,999.32
2024-03-03T11:32:35.316Z,999.33
2024-03-03T11:33:35.215Z,999.32
2024-03-03T11:34:35.248Z,999.19
2024-03-03T11:35:35.224Z,999.15
2024-03-03T11:36:35.184Z,999.09
2024-03-03T11:37:35.378Z,999.17
2024-03-03T11:38:35.325Z,999.20
2024-03-03T11:39:35.426Z,999.21
2024-03-03T11:40:35.428Z,999.22
2024-03-03T11:41:35.398Z,999.23
2024-03-03T11:42:35.518Z,999.23
2024-03-03T11:43:35.558Z,999.19
2024-03-03T11:44:35.612Z,999.22
2024-03-03T11:45:35.610Z,999.17
2024-03-03T11:46:35.686Z,999.14
2024-03-03T11:47:35.756Z,999.08
2024-03-03T11:48:35.714Z,999.07
2024-03-03T11:49:35.806Z,999.08
2024-03-03T11:50:35.731Z,999.04
2024-03-03T11:51:35.695Z,999.00
2024-03-03T11:52:35.660Z,999.10
2024-03-03T11:53:35.631Z,999.06
2024-03-03T11:54:35.636Z,999.11
2024-03-03T11:55:35.653Z,999.04
2024-03-03T11:56:35.692Z,998.96
2024-03-03T11:57:35.621Z,999.05
2024-03-03T11:58:35.708Z,999.07
2024-03-03T11:59:35.649Z,999.05
2024-03-03T12:00:35.721Z,999.07
2024-03-03T12:01:35.801Z,999.03
2024-03-03T12:02:38.461Z,999.03
2024-03-03T12:03:35.786Z,999.02
2024-03-03T12:04:35.859Z,999.11
2024-03-03T12:05:35.941Z,999.01
2024-03-03T12:06:36.023Z,999.09
2024-03-03T12:07:36.076Z,999.02
2024-03-03T12:08:36.042Z,999.03
2024-03-03T12:09:36.046Z,999.05
2024-03-03T12:10:36.123Z,999.06